M I D A S
Marine Information and Data Acquisition System
Tripno 448 of the Zeeleeuw from 2003-03-19 07:25:30 to 2003-03-19 14:17:29
Back to CruiseResearch ActivitiesStationsMapUnderway DataData graphs

EquipmentUnitsComment
TimeDGPSUTC
LatitudeDGPSDM.mWGS84
LongitudeDGPSDM.mWGS84
TemperatureSBE03/SBE38deg celciusITS90
ConductivitySBE21S/mITS90
SalinitySBE21 Practical Salinity Units
ChlorophylAChelsea fluorimeterg/lCalibrated in Aceton
Missing or incorrect values are displayed as -999
Sea surface data collected by the RV Zeeleeuw from 2003-03-19 07:25:30 to 2003-03-19 14:17:29
Time Latitude Longitude Temperature Conductivity Salinity ChlorophylA
2003-03-19 07:26:32 51°13.599 2°56.105 13.858634 0.066431 0.381932 -0.71383
2003-03-19 07:27:34 51°13.598 2°56.104 13.858944 0.066535 0.382556 -0.71383
2003-03-19 07:28:34 51°13.609 2°56.048 13.878277 0.066431 0.381951 -0.680121
2003-03-19 07:29:34 51°13.621 2°55.984 13.868589 0.066535 0.382556 -0.71383
2003-03-19 07:30:34 51°13.641 2°55.92 -999 0.066431 0.381938 -0.74754
2003-03-19 07:31:34 51°13.674 2°55.814 -999 0.066431 0.381938 -0.71383
2003-03-19 07:32:34 51°13.696 2°55.727 -999 0.066431 0.381945 -0.71383
2003-03-19 07:33:34 51°13.702 2°55.717 -999 0.066535 0.382569 -0.71383
2003-03-19 07:34:34 51°13.704 2°55.71 -999 0.066431 0.381964 -0.680121
2003-03-19 07:35:34 51°13.713 2°55.7 -999 0.066431 0.381978 -0.680121
2003-03-19 07:36:33 51°13.766 2°55.666 -999 0.066431 0.381951 -0.74754
2003-03-19 07:37:34 51°13.876 2°55.592 -999 0.066431 0.381964 -0.71383
2003-03-19 07:38:33 51°13.993 2°55.511 -999 0.066535 0.382589 -0.680121
2003-03-19 07:39:33 51°14.115 2°55.423 -999 0.066431 0.381971 -0.71383
2003-03-19 07:40:33 51°14.236 2°55.302 -999 0.066535 0.382576 -0.680121
2003-03-19 07:41:33 51°14.328 2°55.14 -999 0.066431 0.381964 -0.680121
2003-03-19 07:42:34 51°14.394 2°54.905 -999 0.066431 0.381964 -0.71383
2003-03-19 07:43:34 51°14.379 2°54.58 -999 0.066431 0.381964 -0.71383
2003-03-19 07:44:34 51°14.323 2°54.231 8.510397 3.092563 28.840148 16.241999
2003-03-19 07:45:34 51°14.249 2°53.885 7.97809 3.062155 29.78345 21.972597
2003-03-19 07:46:32 51°14.153 2°53.561 8.014614 3.067106 30.15612 20.489383
2003-03-19 07:47:33 51°14.068 2°53.2 7.204527 3.069528 30.254807 20.725349
2003-03-19 07:48:32 51°13.941 2°52.868 7.799282 3.078161 30.398239 19.983742
2003-03-19 07:49:34 51°13.815 2°52.506 7.585563 3.076056 30.392748 19.00617
2003-03-19 07:50:34 51°13.696 2°52.153 7.895532 3.073003 30.372334 17.522956
2003-03-19 07:51:34 51°13.567 2°51.808 8.168126 3.07553 30.428147 16.74764
2003-03-19 07:52:34 51°13.444 2°51.46 8.108996 3.086268 30.541791 16.410546
2003-03-19 07:53:34 51°13.321 2°51.113 7.835908 3.092795 30.609381 16.511674
2003-03-19 07:54:34 51°13.198 2°50.763 7.759188 3.094795 30.631272 17.455537
2003-03-19 07:55:34 51°13.075 2°50.413 8.067742 3.089952 30.58211 17.624084
2003-03-19 07:56:34 51°12.95 2°50.063 7.621776 3.091426 30.612058 17.455537
2003-03-19 07:57:34 51°12.825 2°49.706 7.895047 3.082583 30.51755 17.489247
2003-03-19 07:58:34 51°12.7 2°49.347 7.710323 3.084057 30.539812 18.028597
2003-03-19 07:59:34 51°12.575 2°48.99 7.956408 3.083004 30.521393 17.051024
2003-03-19 08:00:34 51°12.452 2°48.633 7.716105 3.084162 30.529473 17.421828
2003-03-19 08:01:34 51°12.326 2°48.28 8.040144 3.100901 30.713512 17.893759
2003-03-19 08:02:34 51°12.202 2°47.926 7.411173 3.102586 30.72888 18.466819
2003-03-19 08:03:34 51°12.078 2°47.566 7.86786 3.113745 30.841086 18.669076
2003-03-19 08:04:34 51°11.953 2°47.205 7.881285 3.121325 30.908643 19.511811
2003-03-19 08:05:33 51°11.833 2°46.85 7.697445 3.128695 30.980066 20.860187
2003-03-19 08:06:33 51°11.717 2°46.484 7.782102 3.135222 31.043025 22.511947
2003-03-19 08:07:34 51°11.598 2°46.112 8.3206 3.144909 31.135119 23.860324
2003-03-19 08:08:34 51°11.483 2°45.748 7.551765 3.156385 31.241316 25.950306
2003-03-19 08:09:33 51°11.37 2°45.39 7.971605 3.170177 31.369685 29.456084
2003-03-19 08:10:34 51°11.254 2°45.022 8.307987 3.17839 31.444716 30.703332
2003-03-19 08:11:34 51°11.142 2°44.663 8.320263 3.192499 31.581136 31.242683
2003-03-19 08:12:34 51°11.03 2°44.306 8.294314 3.199659 31.648505 32.591059
2003-03-19 08:13:34 51°10.919 2°43.952 8.152589 3.204714 31.688836 34.040563
2003-03-19 08:14:34 51°10.806 2°43.602 7.730243 3.213664 31.771797 36.43393
2003-03-19 08:15:34 51°10.7 2°43.252 7.943336 3.21756 31.801768 37.58005
2003-03-19 08:16:34 51°10.663 2°42.886 7.918204 3.224931 31.868963 39.029554
2003-03-19 08:17:34 51°10.631 2°42.501 8.171118 3.230933 31.924329 41.658888
2003-03-19 08:18:34 51°10.485 2°42.188 7.55839 3.240726 32.017186 43.78258
2003-03-19 08:19:34 51°10.36 2°41.859 7.973347 3.249256 32.083403 49.681725
2003-03-19 08:20:34 51°10.235 2°41.531 7.897228 3.254731 32.136123 55.681999
2003-03-19 08:21:34 51°10.123 2°41.194 8.252841 3.254205 32.131162 57.603435
2003-03-19 08:22:34 51°9.998 2°40.871 8.444375 3.255258 32.145082 57.670853
2003-03-19 08:23:34 51°9.895 2°40.529 8.138978 3.255785 32.145246 60.67099
2003-03-19 08:24:34 51°9.783 2°40.194 7.829749 3.261155 32.198405 66.233042
2003-03-19 08:25:34 51°9.674 2°39.857 8.181924 3.263051 32.213538 66.671264
2003-03-19 08:26:34 51°9.57 2°39.515 7.506349 3.260523 32.190692 67.648836
2003-03-19 08:27:34 51°9.468 2°39.172 8.194175 3.257259 32.15338 68.087059
2003-03-19 08:28:34 51°9.361 2°38.834 7.863352 3.255152 32.113576 68.120768
2003-03-19 08:29:34 51°9.256 2°38.494 8.195766 3.255573 32.095052 59.390033
2003-03-19 08:30:34 51°9.149 2°38.156 8.136806 3.257153 32.097963 59.794546
2003-03-19 08:31:34 51°9.037 2°37.84 7.764432 3.259048 32.098747 67.513999
2003-03-19 08:32:34 51°8.973 2°37.522 8.106244 3.260206 32.086721 68.188187
2003-03-19 08:33:33 51°8.988 2°37.231 7.739715 3.261575 32.079394 68.154477
2003-03-19 08:34:34 51°9.115 2°37.223 6.709257 3.266524 32.096787 68.188187
2003-03-19 08:35:34 51°9.134 2°37.258 6.707529 3.272422 32.200832 63.704836
2003-03-19 08:36:34 51°9.12 2°37.257 6.733093 3.27674 32.256712 68.154477
2003-03-19 08:37:34 51°9.115 2°37.261 6.705851 3.274212 32.230734 60.805828
2003-03-19 08:38:34 51°9.114 2°37.26 6.710096 3.272422 32.20482 58.176494
2003-03-19 08:39:34 51°9.116 2°37.257 6.75554 3.272317 32.203672 59.322614
2003-03-19 08:40:34 51°9.121 2°37.252 6.729738 3.272843 32.19028 41.119537
2003-03-19 08:41:33 51°9.122 2°37.244 6.759633 3.271685 32.171282 38.557623
2003-03-19 08:42:34 51°9.122 2°37.234 6.794395 3.273475 32.197168 44.760153
2003-03-19 08:43:33 51°9.12 2°37.222 6.716957 3.272843 32.193467 46.074819
2003-03-19 08:44:33 51°9.116 2°37.212 6.702791 3.273475 32.205139 49.007537
2003-03-19 08:45:33 51°9.111 2°37.2 6.707924 3.276213 32.246973 55.243777
2003-03-19 08:46:34 51°9.103 2°37.192 6.722978 3.275055 32.219173 48.232221
2003-03-19 08:47:34 51°9.098 2°37.187 6.747697 3.271685 32.168894 38.625042
2003-03-19 08:48:33 51°9.093 2°37.185 6.75914 3.273475 32.170095 36.029418
2003-03-19 08:49:33 51°9.094 2°37.179 6.712761 3.27337 32.197614 48.704153
2003-03-19 08:50:33 51°9.1 2°37.167 6.726185 3.27337 32.211169 54.266204
2003-03-19 08:51:32 51°9.105 2°37.153 6.748387 3.273475 32.18044 34.546204
2003-03-19 08:52:33 51°9.109 2°37.136 6.76994 3.274949 32.196504 39.602614
2003-03-19 08:53:32 51°9.112 2°37.125 6.692078 3.280004 32.272348 59.288905
2003-03-19 08:54:32 51°9.115 2°37.125 6.683585 3.285165 32.356668 68.120768
2003-03-19 08:55:34 51°9.11 2°37.134 6.683733 3.285692 32.364823 68.390443
2003-03-19 08:56:34 51°9.092 2°37.143 6.685609 3.285797 32.365171 68.053349
2003-03-19 08:57:32 51°9.067 2°37.148 6.695287 3.285376 32.357364 67.547708
2003-03-19 08:58:33 51°9.03 2°37.137 6.717796 3.282532 32.311112 60.637281
2003-03-19 08:59:33 51°8.993 2°37.102 6.714094 3.278741 32.258566 54.940392
2003-03-19 09:00:33 51°8.962 2°37.05 6.731218 3.275897 32.223573 53.962819
2003-03-19 09:01:33 51°8.94 2°36.983 6.720066 3.274423 32.205108 50.928973
2003-03-19 09:02:32 51°8.931 2°36.915 6.719523 3.274528 32.205459 56.356187
2003-03-19 09:03:33 51°8.933 2°36.849 6.70131 3.276529 32.233653 60.199059
2003-03-19 09:04:32 51°8.954 2°36.771 6.724853 3.278951 32.276845 68.120768
2003-03-19 09:05:34 51°9.013 2°36.519 6.705357 3.281163 32.291377 62.558717
2003-03-19 09:06:32 51°8.996 2°36.185 6.701162 3.291168 32.401339 57.536016
2003-03-19 09:07:32 51°8.966 2°35.826 6.714982 3.298013 32.473647 62.322751
2003-03-19 09:08:34 51°8.939 2°35.449 6.782958 3.303174 32.512276 55.715708
2003-03-19 09:09:34 51°8.915 2°35.082 6.76999 3.30865 32.551908 53.92911
2003-03-19 09:10:34 51°8.895 2°34.719 6.796268 3.319603 32.639135 58.648426
2003-03-19 09:11:34 51°8.877 2°34.362 6.812631 3.332452 32.759043 64.850956
2003-03-19 09:12:34 51°8.861 2°34.007 6.824752 3.337823 32.803037 66.367879
2003-03-19 09:13:34 51°8.844 2°33.65 6.827709 3.342668 32.843698 64.277896
2003-03-19 09:14:34 51°8.823 2°33.321 6.817164 3.342246 32.843968 54.333623
2003-03-19 09:15:34 51°8.809 2°33.104 6.721349 3.320761 32.680836 45.299503
2003-03-19 09:16:33 51°8.817 2°32.96 6.735067 3.31518 32.640911 45.265794
2003-03-19 09:17:34 51°8.839 2°32.863 6.720362 3.312547 32.607324 43.344358
2003-03-19 09:18:35 51°8.866 2°32.805 6.726481 3.313284 32.621021 47.760289
2003-03-19 09:19:35 51°8.89 2°32.759 6.764072 3.314232 32.628947 49.041247
2003-03-19 09:20:34 51°8.914 2°32.716 6.720609 3.309282 32.581364 49.176084
2003-03-19 09:21:35 51°8.937 2°32.669 6.71444 3.308124 32.575974 53.052665
2003-03-19 09:22:35 51°8.955 2°32.621 6.721004 3.310967 32.606217 53.861691
2003-03-19 09:23:34 51°8.973 2°32.573 6.731465 3.313916 32.628728 54.940392
2003-03-19 09:24:33 51°8.991 2°32.54 6.753024 3.309282 32.562022 38.72617
2003-03-19 09:25:34 51°9.006 2°32.522 6.786409 3.315601 32.608392 40.647606
2003-03-19 09:26:35 51°9.016 2°32.519 6.823422 3.32192 32.649074 36.636187
2003-03-19 09:27:35 51°9.022 2°32.53 6.82761 3.347829 32.904826 43.344358
2003-03-19 09:28:34 51°9.02 2°32.555 6.828891 3.358361 33.018067 43.007264
2003-03-19 09:29:34 51°9 2°32.583 6.877893 3.3611 33.045495 46.850136
2003-03-19 09:30:35 51°8.968 2°32.598 6.834064 3.361732 33.044237 49.007537
2003-03-19 09:31:33 51°8.933 2°32.605 6.880207 3.342247 32.852074 39.096973
2003-03-19 09:32:33 51°8.912 2°32.618 6.769595 3.322341 32.664959 34.276529
2003-03-19 09:33:33 51°8.906 2°32.627 6.833867 3.318339 32.625355 30.602204
2003-03-19 09:34:33 51°8.91 2°32.626 6.791536 3.319392 32.623943 28.276255
2003-03-19 09:35:34 51°8.941 2°32.619 6.884538 3.322656 32.633742 27.703195
2003-03-19 09:36:34 51°9.01 2°32.644 6.765354 3.323499 32.659842 35.89458
2003-03-19 09:37:35 51°9.07 2°32.676 6.800655 3.322341 32.675452 35.456358
2003-03-19 09:38:34 51°9.107 2°32.72 6.822634 3.352674 32.969862 47.895127
2003-03-19 09:39:35 51°9.12 2°32.742 6.824408 3.36426 33.087315 43.108392
2003-03-19 09:40:35 51°9.127 2°32.754 6.828448 3.365945 33.099989 39.568905
2003-03-19 09:41:34 51°9.129 2°32.769 6.831256 3.366472 33.106552 45.636597
2003-03-19 09:42:33 51°9.134 2°32.774 6.828004 3.367525 33.104977 41.894853
2003-03-19 09:43:34 51°9.137 2°32.775 6.903093 3.367209 33.109696 46.513042
2003-03-19 09:44:34 51°9.138 2°32.776 6.849432 3.366156 33.10964 54.637007
2003-03-19 09:45:34 51°9.135 2°32.778 6.808097 3.365208 33.109917 57.502306
2003-03-19 09:46:35 51°9.131 2°32.777 6.812976 3.36584 33.111911 53.457178
2003-03-19 09:47:34 51°9.127 2°32.777 6.849334 3.365945 33.114696 55.04152
2003-03-19 09:48:35 51°9.124 2°32.777 6.814356 3.366472 33.113906 52.951537
2003-03-19 09:49:34 51°9.119 2°32.77 6.823077 3.366261 33.114876 54.940392
2003-03-19 09:50:34 51°9.117 2°32.765 6.823077 3.366998 33.118019 55.311195
2003-03-19 09:51:34 51°9.113 2°32.755 6.827265 3.367314 33.117382 52.850409
2003-03-19 09:52:35 51°9.108 2°32.746 6.831502 3.367525 33.118046 51.13123
2003-03-19 09:53:34 51°9.108 2°32.734 6.855539 3.368473 33.116952 49.681725
2003-03-19 09:54:33 51°9.106 2°32.732 6.880256 3.369737 33.120938 51.805418
2003-03-19 09:55:34 51°9.105 2°32.731 6.842438 3.369526 33.125175 51.704289
2003-03-19 09:56:34 51°9.103 2°32.734 6.837266 3.369737 33.123388 48.737862
2003-03-19 09:57:35 51°9.101 2°32.74 6.83367 3.36921 33.124995 52.985247
2003-03-19 09:58:33 51°9.103 2°32.758 6.842635 3.368894 33.125633 50.457042
2003-03-19 09:59:34 51°9.101 2°32.792 6.890593 3.369315 33.126962 45.636597
2003-03-19 10:00:34 51°9.093 2°32.831 6.845935 3.370053 33.121934 42.130819
2003-03-19 10:01:35 51°9.075 2°32.874 6.856672 3.364259 33.054687 36.231674
2003-03-19 10:02:34 51°9.05 2°32.909 6.842586 3.340666 32.808939 33.63605
2003-03-19 10:03:34 51°9.022 2°32.936 6.903536 3.337928 32.773452 29.725759
2003-03-19 10:04:34 51°8.992 2°32.952 6.907719 3.339613 32.786955 27.332392
2003-03-19 10:05:35 51°8.959 2°32.964 6.88124 3.341193 32.781535 23.725486
2003-03-19 10:06:35 51°8.929 2°32.97 6.873856 3.340771 32.772914 21.905178
2003-03-19 10:07:34 51°8.898 2°32.966 6.821156 3.341193 32.816294 35.961999
2003-03-19 10:08:35 51°8.864 2°32.944 6.878484 3.340772 32.828705 37.478922
2003-03-19 10:09:35 51°8.832 2°32.908 6.955775 3.339192 32.793684 29.658341
2003-03-19 10:10:34 51°8.8 2°32.865 6.784042 3.337928 32.802566 37.849725
2003-03-19 10:11:34 51°8.765 2°32.821 6.792867 3.336665 32.819568 47.793999
2003-03-19 10:12:35 51°8.73 2°32.78 6.828595 3.336348 32.793438 35.186683
2003-03-19 10:13:34 51°8.692 2°32.746 6.833571 3.338349 32.786123 30.298819
2003-03-19 10:14:35 51°8.652 2°32.714 6.805682 3.337717 32.784898 29.860597
2003-03-19 10:15:34 51°8.617 2°32.672 6.803858 3.335611 32.788638 39.029554
2003-03-19 10:16:35 51°8.586 2°32.625 6.84889 3.336243 32.783389 35.726033
2003-03-19 10:17:34 51°8.564 2°32.58 6.805928 3.336138 32.791142 37.748597
2003-03-19 10:18:35 51°8.541 2°32.538 6.813814 3.336348 32.788582 36.973281
2003-03-19 10:19:34 51°8.532 2°32.491 6.812434 3.336559 32.786833 36.164255
2003-03-19 10:20:35 51°8.521 2°32.448 6.813321 3.336664 32.792027 36.164255
2003-03-19 10:21:34 51°8.516 2°32.411 6.829384 3.336032 32.781902 37.310375
2003-03-19 10:22:35 51°8.514 2°32.373 6.832192 3.337191 32.779161 39.535195
2003-03-19 10:23:34 51°8.515 2°32.338 6.839088 3.338139 32.778978 40.040836
2003-03-19 10:24:35 51°8.513 2°32.313 6.91569 3.337401 32.77903 41.658888
2003-03-19 10:25:34 51°8.515 2°32.29 6.81948 3.337507 32.780178 42.771298
2003-03-19 10:26:35 51°8.516 2°32.268 6.858789 3.33677 32.784275 43.007264
2003-03-19 10:27:34 51°8.517 2°32.249 6.856967 3.336664 32.782318 43.715161
2003-03-19 10:28:35 51°8.52 2°32.232 6.834803 3.337296 32.784351 44.659024
2003-03-19 10:29:34 51°8.517 2°32.215 6.900141 3.339402 32.793553 45.569178
2003-03-19 10:30:35 51°8.519 2°32.202 6.85352 3.339929 32.820331 49.176084
2003-03-19 10:31:34 51°8.521 2°32.191 6.806963 3.339613 32.820936 49.378341
2003-03-19 10:32:35 51°8.522 2°32.178 6.851845 3.339929 32.825191 50.591879
2003-03-19 10:33:34 51°8.524 2°32.173 6.813271 3.339929 32.821951 49.344631
2003-03-19 10:34:35 51°8.53 2°32.173 6.82894 3.339929 32.813854 49.614306
2003-03-19 10:35:34 51°8.537 2°32.179 6.851698 3.341509 32.831881 49.209794
2003-03-19 10:36:35 51°8.565 2°32.174 6.905012 3.343404 32.786226 30.298819
2003-03-19 10:37:35 51°8.582 2°32.082 6.862581 3.344984 32.791305 27.500939
2003-03-19 10:38:35 51°8.522 2°32.034 6.887196 3.344458 32.840531 36.029418
2003-03-19 10:39:34 51°8.484 2°32.111 6.875481 3.346564 32.827872 32.253965
2003-03-19 10:40:35 51°8.5 2°32.225 6.922331 3.344879 32.805497 28.073999
2003-03-19 10:41:35 51°8.511 2°32.316 6.912246 3.34688 32.792557 25.781759
2003-03-19 10:42:35 51°8.512 2°32.341 6.851008 3.3453 32.788287 25.545794
2003-03-19 10:43:34 51°8.511 2°32.353 6.791388 3.342562 32.83769 50.086238
2003-03-19 10:44:35 51°8.513 2°32.375 6.812286 3.341299 32.849846 51.13123
2003-03-19 10:45:34 51°8.523 2°32.394 6.911015 3.339929 32.796864 33.231537
2003-03-19 10:46:35 51°8.537 2°32.404 6.918691 3.344036 32.762457 25.815469
2003-03-19 10:47:34 51°8.553 2°32.403 6.886557 3.345405 32.803151 34.343947
2003-03-19 10:48:35 51°8.564 2°32.391 6.874299 3.342773 32.806002 40.175674
2003-03-19 10:49:34 51°8.572 2°32.374 6.824851 3.34351 32.830206 48.603024
2003-03-19 10:50:34 51°8.575 2°32.356 6.811448 3.344248 32.864972 51.906546
2003-03-19 10:51:34 51°8.576 2°32.336 6.803316 3.344774 32.878826 52.445896
2003-03-19 10:52:35 51°8.569 2°32.322 6.844211 3.346354 32.899302 52.445896
2003-03-19 10:53:35 51°8.562 2°32.31 6.801345 3.344774 32.883695 51.164939
2003-03-19 10:54:35 51°8.549 2°32.305 6.810709 3.342984 32.86498 50.490751
2003-03-19 10:55:35 51°8.537 2°32.296 6.887836 3.342878 32.851667 44.760153
2003-03-19 10:56:34 51°8.53 2°32.291 6.854209 3.34688 32.81919 35.89458
2003-03-19 10:57:34 51°8.517 2°32.29 6.898812 3.345511 32.837433 40.9847
2003-03-19 10:58:34 51°8.502 2°32.289 6.882274 3.346143 32.836224 41.018409
2003-03-19 10:59:35 51°8.489 2°32.286 6.881043 3.346248 32.814739 36.636187
2003-03-19 11:00:35 51°8.475 2°32.289 6.885228 3.344668 32.812899 33.973144
2003-03-19 11:01:33 51°8.462 2°32.293 6.882619 3.341403 32.779791 31.444939
2003-03-19 11:02:35 51°8.451 2°32.295 6.935563 3.339929 32.772624 34.546204
2003-03-19 11:03:35 51°8.444 2°32.297 6.965903 3.34393 32.760506 28.411093
2003-03-19 11:04:35 51°8.441 2°32.296 6.969688 3.346563 32.756101 23.961452
2003-03-19 11:05:34 51°8.443 2°32.296 6.941908 3.346774 32.756779 24.736768
2003-03-19 11:06:35 51°8.448 2°32.296 6.939449 3.344668 32.755632 26.590785
2003-03-19 11:07:35 51°8.455 2°32.297 6.961773 3.344457 32.756564 27.804324
2003-03-19 11:08:35 51°8.46 2°32.301 6.955873 3.344984 32.752624 27.804324
2003-03-19 11:09:35 51°8.468 2°32.308 6.98871 3.347406 32.754791 25.377247
2003-03-19 11:10:35 51°8.476 2°32.314 6.980945 3.34888 32.769187 28.57964
2003-03-19 11:11:35 51°8.484 2°32.322 7.012245 3.349723 32.761442 27.197554
2003-03-19 11:12:34 51°8.494 2°32.331 7.009052 3.350144 32.75235 26.422238
2003-03-19 11:13:35 51°8.505 2°32.343 6.988218 3.349301 32.764912 28.950443
2003-03-19 11:14:34 51°8.513 2°32.353 7.020498 3.349512 32.753531 25.512084
2003-03-19 11:15:35 51°8.522 2°32.367 6.997358 3.349617 32.750656 25.444665
2003-03-19 11:16:35 51°8.525 2°32.349 6.961773 3.349091 32.761017 26.89417
2003-03-19 11:17:34 51°8.465 2°32.263 6.988611 3.348143 32.77245 26.017725
2003-03-19 11:18:35 51°8.37 2°32.163 7.053939 3.346668 32.745984 28.276255
2003-03-19 11:19:34 51°8.274 2°32.065 6.878484 3.339506 32.631408 27.871742
2003-03-19 11:20:35 51°8.175 2°31.963 6.867505 3.32887 32.663555 39.501486
2003-03-19 11:21:35 51°8.079 2°31.863 6.868489 3.330766 32.672109 40.175674
2003-03-19 11:22:34 51°7.986 2°31.766 6.815193 3.324026 32.643822 47.288358
2003-03-19 11:23:35 51°7.89 2°31.665 6.866668 3.328133 32.685336 46.277076
2003-03-19 11:24:34 51°7.799 2°31.566 6.867012 3.333926 32.719382 56.356187
2003-03-19 11:25:35 51°7.701 2°31.467 6.904323 3.338349 32.753816 49.648016
2003-03-19 11:26:34 51°7.606 2°31.375 6.870656 3.336769 32.730173 50.153657
2003-03-19 11:27:35 51°7.504 2°31.29 6.891626 3.341824 32.780339 48.83899
2003-03-19 11:28:34 51°7.405 2°31.208 6.916428 3.344352 32.788467 47.625452
2003-03-19 11:29:34 51°7.301 2°31.13 6.894087 3.347933 32.794328 46.951264
2003-03-19 11:30:34 51°7.193 2°31.058 6.921003 3.345932 32.811301 52.445896
2003-03-19 11:31:35 51°7.08 2°30.99 7.016077 3.34867 32.759662 38.995845
2003-03-19 11:32:35 51°6.96 2°30.944 6.987334 3.345826 32.711139 30.602204
2003-03-19 11:33:35 51°6.831 2°30.948 7.093741 3.342876 32.680762 30.939298
2003-03-19 11:34:35 51°6.7 2°30.977 6.986056 3.360782 32.841971 52.850409
2003-03-19 11:35:35 51°6.572 2°30.99 6.994754 3.36963 32.981567 66.839811
2003-03-19 11:36:35 51°6.444 2°31.015 7.040535 3.378793 33.057584 68.289315
2003-03-19 11:37:34 51°6.353 2°31.179 7.140089 3.390484 33.130935 56.491024
2003-03-19 11:38:34 51°6.355 2°31.428 7.116601 3.398068 33.162864 61.446306
2003-03-19 11:39:35 51°6.398 2°31.695 7.13244 3.396699 33.154514 68.120768
2003-03-19 11:40:35 51°6.445 2°31.959 7.087804 3.391853 33.114979 68.053349
2003-03-19 11:41:34 51°6.504 2°32.212 7.072935 3.389115 33.107168 68.053349
2003-03-19 11:42:35 51°6.577 2°32.452 7.072592 3.387746 33.100424 68.053349
2003-03-19 11:43:34 51°6.642 2°32.651 7.078236 3.386166 33.076003 68.087059
2003-03-19 11:44:35 51°6.725 2°32.8 7.150237 3.384796 33.031247 59.727127
2003-03-19 11:45:35 51°6.805 2°32.825 7.111549 3.384164 33.001808 60.637281
2003-03-19 11:46:34 51°6.84 2°32.789 7.1037 3.379003 32.95401 47.355777
2003-03-19 11:47:34 51°6.832 2°32.76 7.108262 3.375737 32.929137 60.435024
2003-03-19 11:48:33 51°6.825 2°32.74 7.058161 3.375843 32.954448 68.188187
2003-03-19 11:49:35 51°6.826 2°32.737 7.028749 3.374895 32.975647 68.087059
2003-03-19 11:50:35 51°6.835 2°32.751 7.033611 3.374369 32.985287 68.087059
2003-03-19 11:51:35 51°6.847 2°32.757 7.059585 3.374158 32.992705 68.087059
2003-03-19 11:52:35 51°6.86 2°32.765 7.008462 3.373632 32.992652 68.087059
2003-03-19 11:53:35 51°6.865 2°32.766 6.997997 3.373843 32.999792 68.01964
2003-03-19 11:54:33 51°6.86 2°32.772 7.001437 3.373105 33.002311 68.053349
2003-03-19 11:55:35 51°6.842 2°32.791 7.024083 3.374159 33.012127 68.120768
2003-03-19 11:56:35 51°6.818 2°32.804 7.015635 3.378161 33.035328 68.087059
2003-03-19 11:57:34 51°6.791 2°32.772 7.031156 3.378161 33.038568 68.053349
2003-03-19 11:58:34 51°6.79 2°32.663 7.043678 3.381215 33.056325 68.053349
2003-03-19 11:59:35 51°6.803 2°32.627 7.044856 3.384481 33.083647 68.01964
2003-03-19 12:00:34 51°6.812 2°32.635 7.093938 3.385745 33.091686 68.053349
2003-03-19 12:01:35 51°6.82 2°32.649 7.052712 3.386377 33.099352 68.053349
2003-03-19 12:02:35 51°6.823 2°32.667 7.049668 3.387008 33.100532 68.01964
2003-03-19 12:03:34 51°6.826 2°32.682 7.084566 3.38743 33.101049 68.053349
2003-03-19 12:04:34 51°6.829 2°32.698 7.118366 3.3908 33.114904 68.053349
2003-03-19 12:05:35 51°6.829 2°32.712 7.081229 3.390063 33.113394 68.01964
2003-03-19 12:06:35 51°6.83 2°32.719 7.096047 3.391011 33.117188 68.053349
2003-03-19 12:07:34 51°6.829 2°32.725 7.090356 3.392485 33.126688 68.087059
2003-03-19 12:08:35 51°6.827 2°32.73 7.101738 3.393644 33.132762 68.053349
2003-03-19 12:09:35 51°6.824 2°32.729 7.11508 3.395645 33.143103 68.053349
2003-03-19 12:10:34 51°6.822 2°32.726 7.182189 3.40028 33.177096 68.01964
2003-03-19 12:11:34 51°6.818 2°32.724 7.167489 3.405336 33.212386 68.120768
2003-03-19 12:12:34 51°6.816 2°32.721 7.186599 3.410076 33.244228 68.087059
2003-03-19 12:13:35 51°6.816 2°32.716 7.230235 3.412814 33.261694 68.154477
2003-03-19 12:14:35 51°6.803 2°32.688 7.188362 3.414394 33.273109 68.087059
2003-03-19 12:15:35 51°6.715 2°32.528 7.243746 3.416501 33.278046 58.581007
2003-03-19 12:16:34 51°6.601 2°32.291 7.243208 3.431985 33.390211 51.333486
2003-03-19 12:17:35 51°6.526 2°31.999 7.227591 3.436515 33.449735 54.063947
2003-03-19 12:18:35 51°6.48 2°31.693 7.211384 3.434092 33.441457 53.322341
2003-03-19 12:19:35 51°6.45 2°31.374 7.212559 3.424401 33.365936 62.187913
2003-03-19 12:20:35 51°6.428 2°31.068 7.140971 3.414394 33.301539 68.323024
2003-03-19 12:21:35 51°6.495 2°30.825 7.113462 3.410919 33.285844 68.053349
2003-03-19 12:22:35 51°6.691 2°30.87 7.063904 3.404599 33.244998 61.81711
2003-03-19 12:23:34 51°6.895 2°30.951 7.077745 3.395962 33.192785 68.120768
2003-03-19 12:24:35 51°7.115 2°31.127 7.00065 3.386798 33.116901 68.356734
2003-03-19 12:25:34 51°7.303 2°31.391 6.973473 3.381953 33.100013 66.064494
2003-03-19 12:26:34 51°7.502 2°31.651 6.990675 3.383955 33.139639 63.030648
2003-03-19 12:27:35 51°7.677 2°31.965 7.01755 3.38901 33.166103 61.884529
2003-03-19 12:28:34 51°7.84 2°32.281 7.039504 3.395751 33.222227 59.491161
2003-03-19 12:29:35 51°8.02 2°32.593 7.020399 3.399754 33.254287 54.940392
2003-03-19 12:30:35 51°8.126 2°32.824 7.007627 3.39849 33.263385 49.715435
2003-03-19 12:31:35 51°8.075 2°32.954 7.037392 3.396068 33.243586 62.828392
2003-03-19 12:32:34 51°8.06 2°32.981 6.935071 3.367944 32.96812 45.973691
2003-03-19 12:33:34 51°8.062 2°32.981 6.919232 3.358992 32.906441 60.232768
2003-03-19 12:34:35 51°8.061 2°32.985 6.932366 3.355832 32.883414 63.199195
2003-03-19 12:35:35 51°8.061 2°32.991 6.930694 3.362889 32.951232 66.064494
2003-03-19 12:36:35 51°8.063 2°32.998 6.941465 3.360888 32.927857 57.468597
2003-03-19 12:37:35 51°8.066 2°32.998 6.985663 3.360045 32.91708 59.457452
2003-03-19 12:38:35 51°8.071 2°32.997 6.953513 3.362784 32.934707 61.581144
2003-03-19 12:39:34 51°8.072 2°33.006 6.956365 3.365206 32.961033 63.536289
2003-03-19 12:40:35 51°8.077 2°33.006 6.954644 3.364574 32.940408 52.749281
2003-03-19 12:41:34 51°8.081 2°33.01 6.994066 3.362678 32.934371 63.907093
2003-03-19 12:42:34 51°8.091 2°33.008 6.992199 3.360782 32.907303 50.827845
2003-03-19 12:43:35 51°8.101 2°33.01 6.993132 3.36173 32.915176 51.266067
2003-03-19 12:44:35 51°8.102 2°33.02 7.003058 3.381005 33.084035 56.491024
2003-03-19 12:45:34 51°8.098 2°33.044 7.022708 3.391644 33.195521 62.558717
2003-03-19 12:46:35 51°8.09 2°33.07 7.076518 3.396173 33.219474 50.119947
2003-03-19 12:47:35 51°8.081 2°33.093 7.028995 3.397753 33.230929 55.108939
2003-03-19 12:48:35 51°8.068 2°33.078 7.093987 3.396067 33.218331 55.648289
2003-03-19 12:49:35 51°8.064 2°33.021 7.037098 3.39238 33.148253 40.276802
2003-03-19 12:50:35 51°8.062 2°32.983 7.035919 3.395435 33.208214 58.109076
2003-03-19 12:51:35 51°8.061 2°32.98 7.040928 3.397647 33.22246 50.288494
2003-03-19 12:52:34 51°8.061 2°32.983 7.041714 3.39691 33.220153 52.412187
2003-03-19 12:53:35 51°8.06 2°32.987 7.038473 3.397121 33.219999 56.457315
2003-03-19 12:54:35 51°8.062 2°32.986 7.042401 3.397015 33.21316 55.378614
2003-03-19 12:55:34 51°8.062 2°32.965 7.042941 3.396278 33.211665 57.536016
2003-03-19 12:56:35 51°8.059 2°32.929 7.035379 3.395541 33.210985 58.547298
2003-03-19 12:57:34 51°8.068 2°32.897 7.044905 3.395541 33.205289 53.996529
2003-03-19 12:58:35 51°8.086 2°32.869 7.039111 3.395751 33.206762 49.648016
2003-03-19 12:59:34 51°8.108 2°32.853 7.038375 3.394593 33.20232 51.839127
2003-03-19 13:00:34 51°8.134 2°32.852 7.056885 3.396067 33.205311 44.119674
2003-03-19 13:01:34 51°8.161 2°32.864 7.047262 3.397753 33.220348 48.569315
2003-03-19 13:02:35 51°8.188 2°32.884 7.043187 3.399649 33.248255 54.603298
2003-03-19 13:03:34 51°8.216 2°32.911 7.051926 3.400386 33.253816 53.861691
2003-03-19 13:04:35 51°8.243 2°32.947 7.060075 3.402492 33.26202 52.850409
2003-03-19 13:05:34 51°8.268 2°32.989 7.046869 3.402493 33.271796 55.446033
2003-03-19 13:06:35 51°8.294 2°33.035 7.041124 3.401966 33.274229 52.580734
2003-03-19 13:07:34 51°8.325 2°33.101 7.012491 3.396489 33.232678 48.063674
2003-03-19 13:08:34 51°8.357 2°33.202 6.985859 3.389326 33.184185 47.861418
2003-03-19 13:09:35 51°8.398 2°33.33 7.020596 3.385113 33.145723 38.72617
2003-03-19 13:10:35 51°8.485 2°33.618 6.98699 3.387115 33.171544 38.72617
2003-03-19 13:11:34 51°8.595 2°33.992 7.004041 3.391644 33.205294 49.310922
2003-03-19 13:12:34 51°8.709 2°34.375 6.996228 3.392486 33.215266 51.063811
2003-03-19 13:13:34 51°8.824 2°34.751 6.994705 3.369208 32.976992 54.266204
2003-03-19 13:14:34 51°8.921 2°35.132 6.920855 3.360256 32.911282 60.974375
2003-03-19 13:15:34 51°9.017 2°35.517 6.96138 3.351198 32.832231 58.682136
2003-03-19 13:16:35 51°9.116 2°35.911 6.941809 3.350882 32.831218 64.716118
2003-03-19 13:17:35 51°9.212 2°36.304 6.921544 3.347617 32.807832 63.940802
2003-03-19 13:18:35 51°9.304 2°36.692 6.923758 3.347406 32.795862 64.008221
2003-03-19 13:19:35 51°9.396 2°37.083 6.94894 3.348775 32.799453 61.850819
2003-03-19 13:20:35 51°9.491 2°37.47 6.925037 3.34551 32.73984 68.087059
2003-03-19 13:21:34 51°9.581 2°37.845 6.97077 3.33403 32.648123 67.851093
2003-03-19 13:22:35 51°9.675 2°38.237 6.962953 3.336768 32.670637 66.839811
2003-03-19 13:23:35 51°9.77 2°38.625 6.914066 3.339296 32.706129 64.07564
2003-03-19 13:24:35 51°9.861 2°39.012 6.92848 3.341192 32.72753 64.143059
2003-03-19 13:25:33 51°9.953 2°39.39 6.930202 3.344246 32.751055 58.682136
2003-03-19 13:26:35 51°10.047 2°39.789 6.922774 3.345826 32.767413 55.61458
2003-03-19 13:27:35 51°10.133 2°40.171 6.900829 3.346669 32.783013 54.097657
2003-03-19 13:28:35 51°10.221 2°40.555 6.881486 3.343193 32.771029 54.535879
2003-03-19 13:29:35 51°10.312 2°40.942 6.909342 3.341298 32.767347 54.603298
2003-03-19 13:30:35 51°10.399 2°41.327 6.906144 3.339718 32.761454 53.389759
2003-03-19 13:31:35 51°10.488 2°41.711 6.829729 3.338876 32.761968 54.434751
2003-03-19 13:32:35 51°10.576 2°42.095 6.887049 3.333189 32.734753 56.052802
2003-03-19 13:33:35 51°10.667 2°42.471 6.848595 3.331714 32.725957 54.974101
2003-03-19 13:34:35 51°10.766 2°42.844 6.794247 3.329924 32.712101 54.198785
2003-03-19 13:35:35 51°10.868 2°43.215 6.822092 3.32529 32.676129 53.760563
2003-03-19 13:36:35 51°10.969 2°43.583 6.765946 3.320972 32.640355 53.558306
2003-03-19 13:37:35 51°11.066 2°43.947 6.82017 3.312862 32.57531 55.04152
2003-03-19 13:38:34 51°11.16 2°44.309 6.745674 3.308334 32.540413 53.120084
2003-03-19 13:39:34 51°11.261 2°44.675 6.771666 3.302963 32.478631 46.816426
2003-03-19 13:40:35 51°11.363 2°45.048 6.770335 3.296644 32.415361 43.276939
2003-03-19 13:41:34 51°11.468 2°45.406 6.715032 3.290957 32.362178 39.096973
2003-03-19 13:42:35 51°11.578 2°45.777 6.739507 3.28348 32.294261 40.647606
2003-03-19 13:43:34 51°11.684 2°46.137 6.703827 3.279056 32.250834 37.714888
2003-03-19 13:44:34 51°11.793 2°46.505 6.696965 3.276002 32.215949 36.197965
2003-03-19 13:45:35 51°11.905 2°46.879 6.683782 3.271579 32.174912 36.636187
2003-03-19 13:46:35 51°12.013 2°47.247 6.777633 3.264629 32.114272 35.119264
2003-03-19 13:47:35 51°12.123 2°47.616 6.649603 3.25989 32.083276 33.332665
2003-03-19 13:48:34 51°12.241 2°47.974 6.659681 3.256415 32.050939 30.501076
2003-03-19 13:49:35 51°12.364 2°48.343 6.603243 3.233353 31.816125 24.163708
2003-03-19 13:50:35 51°12.485 2°48.707 6.654395 3.215347 31.656833 23.287264
2003-03-19 13:51:34 51°12.604 2°49.067 6.651431 3.215663 31.633576 19.612939
2003-03-19 13:52:35 51°12.727 2°49.439 6.593255 3.211661 31.597825 23.051298
2003-03-19 13:53:34 51°12.849 2°49.793 6.51978 3.217769 31.698195 24.467093
2003-03-19 13:54:35 51°12.979 2°50.154 6.529977 3.201238 31.551603 22.983879
2003-03-19 13:55:35 51°13.106 2°50.513 6.526265 3.18797 31.410765 21.028734
2003-03-19 13:56:35 51°13.234 2°50.872 6.501806 3.187655 31.425295 23.52323
2003-03-19 13:57:34 51°13.361 2°51.224 6.608137 3.18797 31.421705 21.938888
2003-03-19 13:58:35 51°13.493 2°51.589 6.505371 3.18618 31.408426 23.860324
2003-03-19 13:59:35 51°13.623 2°51.949 6.55967 3.182811 31.377124 21.837759
2003-03-19 14:00:34 51°13.747 2°52.299 6.492 3.180495 31.342485 19.444392
2003-03-19 14:01:34 51°13.875 2°52.653 6.457321 3.16965 31.252203 22.242272
2003-03-19 14:02:34 51°14.008 2°52.998 6.466438 3.157752 31.146445 22.680494
2003-03-19 14:03:34 51°14.144 2°53.343 6.4814 3.154593 31.097244 21.096153
2003-03-19 14:04:34 51°14.279 2°53.685 6.49824 3.141011 30.94759 21.2647
2003-03-19 14:05:34 51°14.411 2°54.024 6.529928 3.134589 30.872976 20.185999
2003-03-19 14:06:34 51°14.467 2°54.346 6.482886 3.132904 30.857696 20.523093
2003-03-19 14:07:34 51°14.441 2°54.579 6.548883 3.129009 30.807581 18.871332
2003-03-19 14:08:33 51°14.424 2°54.762 6.510769 3.125007 30.719649 16.815059
2003-03-19 14:09:33 51°14.395 2°54.937 6.45965 3.104058 30.578618 25.849178
2003-03-19 14:10:34 51°14.328 2°55.127 6.552594 3.094372 30.440491 21.2647
2003-03-19 14:11:33 51°14.245 2°55.285 6.555365 2.956899 28.93635 15.770067
2003-03-19 14:12:33 51°14.149 2°55.393 6.419003 2.89144 28.302953 14.152016
2003-03-19 14:13:34 51°14.053 2°55.463 6.533195 2.827356 27.585408 14.185725
2003-03-19 14:14:34 51°13.963 2°55.53 6.620199 2.735297 26.496924 14.994751
2003-03-19 14:15:33 51°13.869 2°55.6 6.765157 2.676598 25.801605 15.06217
2003-03-19 14:16:34 51°13.776 2°55.677 6.893054 2.698057 26.036311 16.140871